sensor_id;sensor_type;location;lat;lon;timestamp;P1;durP1;ratioP1;P2;durP2;ratioP2
72645;SDS011;60687;53.876;10.674;2023-05-25T00:04:29;12.33;;;6.00;;
72645;SDS011;60687;53.876;10.674;2023-05-25T00:14:33;12.75;;;6.28;;
72645;SDS011;60687;53.876;10.674;2023-05-25T00:24:37;15.17;;;6.43;;
72645;SDS011;60687;53.876;10.674;2023-05-25T00:34:40;13.77;;;6.17;;
72645;SDS011;60687;53.876;10.674;2023-05-25T00:44:43;14.77;;;6.18;;
72645;SDS011;60687;53.876;10.674;2023-05-25T00:54:48;14.25;;;6.03;;
72645;SDS011;60687;53.876;10.674;2023-05-25T01:04:55;11.77;;;5.13;;
72645;SDS011;60687;53.876;10.674;2023-05-25T01:15:03;11.00;;;4.77;;
72645;SDS011;60687;53.876;10.674;2023-05-25T01:25:08;12.73;;;4.82;;
72645;SDS011;60687;53.876;10.674;2023-05-25T01:35:14;13.07;;;5.07;;
72645;SDS011;60687;53.876;10.674;2023-05-25T01:45:20;12.03;;;4.23;;
72645;SDS011;60687;53.876;10.674;2023-05-25T01:55:24;10.50;;;4.10;;
72645;SDS011;60687;53.876;10.674;2023-05-25T02:05:30;14.00;;;4.37;;
72645;SDS011;60687;53.876;10.674;2023-05-25T02:15:33;10.93;;;4.40;;
72645;SDS011;60687;53.876;10.674;2023-05-25T02:25:37;12.30;;;4.55;;
72645;SDS011;60687;53.876;10.674;2023-05-25T02:35:41;11.65;;;4.18;;
72645;SDS011;60687;53.876;10.674;2023-05-25T02:45:46;10.93;;;3.67;;
72645;SDS011;60687;53.876;10.674;2023-05-25T02:55:48;10.90;;;4.27;;
72645;SDS011;60687;53.876;10.674;2023-05-25T03:05:55;11.57;;;4.35;;
72645;SDS011;60687;53.876;10.674;2023-05-25T03:15:57;12.30;;;4.73;;
72645;SDS011;60687;53.876;10.674;2023-05-25T03:26:01;12.63;;;4.80;;
72645;SDS011;60687;53.876;10.674;2023-05-25T03:36:05;12.93;;;4.75;;
72645;SDS011;60687;53.876;10.674;2023-05-25T03:46:10;9.93;;;3.70;;
72645;SDS011;60687;53.876;10.674;2023-05-25T03:56:12;10.60;;;4.23;;
72645;SDS011;60687;53.876;10.674;2023-05-25T04:06:16;10.38;;;4.47;;
72645;SDS011;60687;53.876;10.674;2023-05-25T04:16:19;13.88;;;4.70;;
72645;SDS011;60687;53.876;10.674;2023-05-25T04:26:24;15.10;;;5.67;;
72645;SDS011;60687;53.876;10.674;2023-05-25T04:36:28;13.27;;;4.83;;
72645;SDS011;60687;53.876;10.674;2023-05-25T04:46:34;12.23;;;4.60;;
72645;SDS011;60687;53.876;10.674;2023-05-25T04:56:38;10.13;;;3.77;;
72645;SDS011;60687;53.876;10.674;2023-05-25T05:06:42;11.37;;;4.00;;
72645;SDS011;60687;53.876;10.674;2023-05-25T05:16:49;11.57;;;3.75;;
72645;SDS011;60687;53.876;10.674;2023-05-25T05:26:53;12.13;;;3.27;;
72645;SDS011;60687;53.876;10.674;2023-05-25T05:36:58;10.27;;;3.80;;
72645;SDS011;60687;53.876;10.674;2023-05-25T05:47:02;10.45;;;3.55;;
72645;SDS011;60687;53.876;10.674;2023-05-25T05:57:05;11.57;;;3.47;;
72645;SDS011;60687;53.876;10.674;2023-05-25T06:07:09;13.03;;;4.00;;
72645;SDS011;60687;53.876;10.674;2023-05-25T06:17:11;15.97;;;3.90;;
72645;SDS011;60687;53.876;10.674;2023-05-25T06:27:15;10.35;;;3.30;;
72645;SDS011;60687;53.876;10.674;2023-05-25T06:37:18;15.53;;;4.40;;
72645;SDS011;60687;53.876;10.674;2023-05-25T06:47:21;13.00;;;3.63;;
72645;SDS011;60687;53.876;10.674;2023-05-25T06:57:24;15.00;;;3.65;;
72645;SDS011;60687;53.876;10.674;2023-05-25T07:07:27;13.83;;;3.30;;
72645;SDS011;60687;53.876;10.674;2023-05-25T07:17:30;11.00;;;3.47;;
72645;SDS011;60687;53.876;10.674;2023-05-25T07:27:34;15.82;;;4.18;;
72645;SDS011;60687;53.876;10.674;2023-05-25T07:37:36;23.88;;;3.40;;
72645;SDS011;60687;53.876;10.674;2023-05-25T07:47:40;10.30;;;3.10;;
72645;SDS011;60687;53.876;10.674;2023-05-25T07:57:42;16.67;;;4.00;;
72645;SDS011;60687;53.876;10.674;2023-05-25T08:07:46;13.63;;;2.85;;
72645;SDS011;60687;53.876;10.674;2023-05-25T08:17:48;12.63;;;3.37;;
72645;SDS011;60687;53.876;10.674;2023-05-25T08:27:52;12.40;;;2.93;;
72645;SDS011;60687;53.876;10.674;2023-05-25T08:37:55;14.57;;;4.13;;
72645;SDS011;60687;53.876;10.674;2023-05-25T08:47:59;14.70;;;2.87;;
72645;SDS011;60687;53.876;10.674;2023-05-25T08:58:05;16.73;;;3.37;;
72645;SDS011;60687;53.876;10.674;2023-05-25T09:08:13;12.50;;;3.22;;
72645;SDS011;60687;53.876;10.674;2023-05-25T09:18:17;15.95;;;4.03;;
72645;SDS011;60687;53.876;10.674;2023-05-25T09:28:22;11.60;;;3.30;;
72645;SDS011;60687;53.876;10.674;2023-05-25T09:38:24;19.10;;;3.70;;
72645;SDS011;60687;53.876;10.674;2023-05-25T09:48:28;26.83;;;4.13;;
72645;SDS011;60687;53.876;10.674;2023-05-25T09:58:30;16.83;;;3.60;;
72645;SDS011;60687;53.876;10.674;2023-05-25T10:08:34;15.33;;;3.13;;
72645;SDS011;60687;53.876;10.674;2023-05-25T10:18:38;18.17;;;3.38;;
72645;SDS011;60687;53.876;10.674;2023-05-25T10:28:47;16.43;;;3.17;;
72645;SDS011;60687;53.876;10.674;2023-05-25T10:38:51;17.00;;;3.23;;
72645;SDS011;60687;53.876;10.674;2023-05-25T10:48:57;18.33;;;3.55;;
72645;SDS011;60687;53.876;10.674;2023-05-25T10:59:02;14.63;;;3.73;;
72645;SDS011;60687;53.876;10.674;2023-05-25T11:09:05;15.23;;;4.00;;
72645;SDS011;60687;53.876;10.674;2023-05-25T11:19:13;13.87;;;3.60;;
72645;SDS011;60687;53.876;10.674;2023-05-25T11:29:18;12.57;;;3.05;;
72645;SDS011;60687;53.876;10.674;2023-05-25T11:39:21;15.03;;;3.60;;
72645;SDS011;60687;53.876;10.674;2023-05-25T11:49:25;20.53;;;4.47;;
72645;SDS011;60687;53.876;10.674;2023-05-25T11:59:28;16.80;;;3.88;;
72645;SDS011;60687;53.876;10.674;2023-05-25T12:09:32;11.87;;;3.23;;
72645;SDS011;60687;53.876;10.674;2023-05-25T12:19:35;14.53;;;2.83;;
72645;SDS011;60687;53.876;10.674;2023-05-25T12:29:45;14.30;;;3.22;;
72645;SDS011;60687;53.876;10.674;2023-05-25T12:39:47;15.13;;;3.57;;
72645;SDS011;60687;53.876;10.674;2023-05-25T12:49:52;17.73;;;4.07;;
72645;SDS011;60687;53.876;10.674;2023-05-25T12:59:55;14.87;;;3.40;;
72645;SDS011;60687;53.876;10.674;2023-05-25T13:09:59;10.77;;;2.75;;
72645;SDS011;60687;53.876;10.674;2023-05-25T13:20:01;13.63;;;3.20;;
72645;SDS011;60687;53.876;10.674;2023-05-25T13:30:09;13.07;;;3.30;;
72645;SDS011;60687;53.876;10.674;2023-05-25T13:40:13;12.52;;;2.58;;
72645;SDS011;60687;53.876;10.674;2023-05-25T13:50:17;14.93;;;2.80;;
72645;SDS011;60687;53.876;10.674;2023-05-25T14:00:19;12.13;;;2.47;;
72645;SDS011;60687;53.876;10.674;2023-05-25T14:10:24;16.67;;;3.20;;
72645;SDS011;60687;53.876;10.674;2023-05-25T14:20:26;12.90;;;2.87;;
72645;SDS011;60687;53.876;10.674;2023-05-25T14:30:30;14.70;;;3.00;;
72645;SDS011;60687;53.876;10.674;2023-05-25T14:40:32;10.80;;;2.63;;
72645;SDS011;60687;53.876;10.674;2023-05-25T14:50:36;16.45;;;3.13;;
72645;SDS011;60687;53.876;10.674;2023-05-25T15:00:40;16.33;;;3.80;;
72645;SDS011;60687;53.876;10.674;2023-05-25T15:10:47;12.00;;;2.80;;
72645;SDS011;60687;53.876;10.674;2023-05-25T15:20:49;14.55;;;3.28;;
72645;SDS011;60687;53.876;10.674;2023-05-25T15:30:53;16.63;;;3.67;;
72645;SDS011;60687;53.876;10.674;2023-05-25T15:40:57;15.37;;;3.43;;
72645;SDS011;60687;53.876;10.674;2023-05-25T15:51:00;11.65;;;2.58;;
72645;SDS011;60687;53.876;10.674;2023-05-25T16:01:03;11.93;;;2.40;;
72645;SDS011;60687;53.876;10.674;2023-05-25T16:11:07;12.83;;;2.57;;
72645;SDS011;60687;53.876;10.674;2023-05-25T16:21:09;11.63;;;2.47;;
72645;SDS011;60687;53.876;10.674;2023-05-25T16:31:12;9.23;;;2.17;;
72645;SDS011;60687;53.876;10.674;2023-05-25T16:41:15;9.57;;;2.03;;
72645;SDS011;60687;53.876;10.674;2023-05-25T16:51:19;11.43;;;2.93;;
72645;SDS011;60687;53.876;10.674;2023-05-25T17:01:24;10.85;;;2.42;;
72645;SDS011;60687;53.876;10.674;2023-05-25T17:11:28;10.30;;;2.40;;
72645;SDS011;60687;53.876;10.674;2023-05-25T17:21:30;11.00;;;2.20;;
72645;SDS011;60687;53.876;10.674;2023-05-25T17:31:35;8.13;;;2.20;;
72645;SDS011;60687;53.876;10.674;2023-05-25T17:41:37;10.35;;;2.60;;
72645;SDS011;60687;53.876;10.674;2023-05-25T17:51:42;11.20;;;2.33;;
72645;SDS011;60687;53.876;10.674;2023-05-25T18:01:44;10.57;;;1.90;;
72645;SDS011;60687;53.876;10.674;2023-05-25T18:11:50;9.82;;;1.80;;
72645;SDS011;60687;53.876;10.674;2023-05-25T18:21:58;7.83;;;2.00;;
72645;SDS011;60687;53.876;10.674;2023-05-25T18:32:02;9.00;;;2.20;;
72645;SDS011;60687;53.876;10.674;2023-05-25T18:42:06;9.13;;;2.20;;
72645;SDS011;60687;53.876;10.674;2023-05-25T18:52:11;9.43;;;1.67;;
72645;SDS011;60687;53.876;10.674;2023-05-25T19:02:13;11.27;;;2.03;;
72645;SDS011;60687;53.876;10.674;2023-05-25T19:12:17;9.85;;;2.22;;
72645;SDS011;60687;53.876;10.674;2023-05-25T19:22:22;8.90;;;1.90;;
72645;SDS011;60687;53.876;10.674;2023-05-25T19:32:26;9.67;;;2.07;;
72645;SDS011;60687;53.876;10.674;2023-05-25T19:42:28;11.23;;;2.57;;
72645;SDS011;60687;53.876;10.674;2023-05-25T19:52:34;10.60;;;2.50;;
72645;SDS011;60687;53.876;10.674;2023-05-25T20:02:36;10.03;;;3.30;;
72645;SDS011;60687;53.876;10.674;2023-05-25T20:12:43;8.60;;;3.07;;
72645;SDS011;60687;53.876;10.674;2023-05-25T20:22:45;13.57;;;3.05;;
72645;SDS011;60687;53.876;10.674;2023-05-25T20:32:49;11.63;;;2.93;;
72645;SDS011;60687;53.876;10.674;2023-05-25T20:42:52;10.10;;;2.70;;
72645;SDS011;60687;53.876;10.674;2023-05-25T20:52:55;10.02;;;2.38;;
72645;SDS011;60687;53.876;10.674;2023-05-25T21:02:58;11.57;;;2.22;;
72645;SDS011;60687;53.876;10.674;2023-05-25T21:13:02;12.33;;;2.50;;
72645;SDS011;60687;53.876;10.674;2023-05-25T21:23:05;11.73;;;2.40;;
72645;SDS011;60687;53.876;10.674;2023-05-25T21:33:08;10.10;;;2.20;;
72645;SDS011;60687;53.876;10.674;2023-05-25T21:43:11;12.13;;;2.77;;
72645;SDS011;60687;53.876;10.674;2023-05-25T21:53:14;13.57;;;2.57;;
72645;SDS011;60687;53.876;10.674;2023-05-25T22:03:17;10.75;;;2.53;;
72645;SDS011;60687;53.876;10.674;2023-05-25T22:13:20;11.17;;;2.23;;
72645;SDS011;60687;53.876;10.674;2023-05-25T22:23:23;13.50;;;3.07;;
72645;SDS011;60687;53.876;10.674;2023-05-25T22:33:27;17.42;;;2.80;;
72645;SDS011;60687;53.876;10.674;2023-05-25T22:43:30;12.85;;;2.75;;
72645;SDS011;60687;53.876;10.674;2023-05-25T22:53:34;17.33;;;3.57;;
72645;SDS011;60687;53.876;10.674;2023-05-25T23:03:36;13.13;;;2.90;;
72645;SDS011;60687;53.876;10.674;2023-05-25T23:13:40;18.50;;;2.60;;
72645;SDS011;60687;53.876;10.674;2023-05-25T23:23:42;15.73;;;3.23;;
72645;SDS011;60687;53.876;10.674;2023-05-25T23:33:46;14.90;;;2.97;;
72645;SDS011;60687;53.876;10.674;2023-05-25T23:43:49;14.63;;;2.88;;
72645;SDS011;60687;53.876;10.674;2023-05-25T23:53:52;14.63;;;2.53;;
